createdAt,value
2018-09-24T00:01:30.903Z,3.67
2018-09-24T00:04:04.870Z,3.47
2018-09-24T00:06:39.953Z,3.57
2018-09-24T00:09:13.837Z,3.10
2018-09-24T00:11:47.754Z,3.80
2018-09-24T00:14:21.688Z,3.40
2018-09-24T00:16:55.979Z,3.33
2018-09-24T00:19:30.631Z,3.50
2018-09-24T00:22:04.885Z,3.70
2018-09-24T00:24:39.299Z,4.07
2018-09-24T00:27:13.408Z,4.10
2018-09-24T00:29:47.774Z,3.90
2018-09-24T00:32:21.594Z,3.80
2018-09-24T00:34:55.623Z,4.57
2018-09-24T00:37:30.058Z,4.20
2018-09-24T00:40:03.908Z,4.07
2018-09-24T00:42:37.828Z,4.33
2018-09-24T00:45:11.824Z,4.37
2018-09-24T00:47:46.033Z,4.20
2018-09-24T00:50:19.848Z,4.10
2018-09-24T00:52:54.088Z,3.93
2018-09-24T00:55:28.438Z,4.30
2018-09-24T00:58:02.504Z,3.80
2018-09-24T01:00:36.395Z,4.03
2018-09-24T01:03:10.364Z,3.73
2018-09-24T01:05:44.576Z,4.10
2018-09-24T01:08:18.619Z,3.50
2018-09-24T01:10:52.779Z,4.03
2018-09-24T01:13:26.665Z,4.37
2018-09-24T01:16:00.760Z,4.30
2018-09-24T01:18:35.038Z,3.73
2018-09-24T01:21:09.148Z,3.80
2018-09-24T01:23:43.176Z,3.73
2018-09-24T01:26:17.132Z,4.27
2018-09-24T01:28:51.304Z,3.33
2018-09-24T01:31:25.770Z,3.73
2018-09-24T01:34:00.524Z,3.40
2018-09-24T01:36:34.611Z,3.27
2018-09-24T01:39:08.812Z,3.53
2018-09-24T01:41:42.734Z,3.07
2018-09-24T01:44:16.592Z,3.20
2018-09-24T01:46:51.406Z,3.37
2018-09-24T01:49:25.474Z,3.10
2018-09-24T01:51:59.492Z,3.37
2018-09-24T01:54:34.372Z,2.83
2018-09-24T01:57:14.593Z,2.87
2018-09-24T01:59:55.002Z,3.07
2018-09-24T02:02:28.972Z,2.90
2018-09-24T02:05:03.078Z,2.90
2018-09-24T02:07:37.048Z,2.87
2018-09-24T02:10:11.492Z,2.77
2018-09-24T02:12:45.692Z,3.50
2018-09-24T02:15:24.276Z,2.87
2018-09-24T02:17:58.062Z,3.23
2018-09-24T02:20:33.333Z,2.83
2018-09-24T02:23:08.294Z,3.20
2018-09-24T02:25:42.766Z,2.83
2018-09-24T02:28:16.995Z,2.77
2018-09-24T02:30:50.983Z,3.07
2018-09-24T02:33:25.327Z,3.00
2018-09-24T02:35:59.233Z,2.70
2018-09-24T02:38:38.097Z,2.97
2018-09-24T02:41:12.126Z,2.90
2018-09-24T02:43:46.859Z,2.70
2018-09-24T02:46:20.541Z,2.90
2018-09-24T02:48:58.928Z,3.30
2018-09-24T02:51:33.091Z,2.60
2018-09-24T02:54:07.571Z,2.83
2018-09-24T02:56:49.687Z,2.77
2018-09-24T02:59:23.954Z,2.50
2018-09-24T03:01:58.583Z,2.90
2018-09-24T03:04:32.728Z,3.23
2018-09-24T03:07:07.672Z,2.60
2018-09-24T03:09:41.708Z,2.57
2018-09-24T03:12:16.009Z,2.93
2018-09-24T03:14:50.086Z,2.70
2018-09-24T03:17:24.774Z,2.80
2018-09-24T03:19:59.916Z,2.60
2018-09-24T03:22:34.727Z,2.60
2018-09-24T03:25:12.483Z,2.30
2018-09-24T03:27:46.853Z,2.60
2018-09-24T03:30:21.587Z,2.60
2018-09-24T03:32:55.652Z,2.40
2018-09-24T03:35:29.757Z,2.23
2018-09-24T03:38:04.128Z,3.00
2018-09-24T03:40:38.084Z,3.27
2018-09-24T03:43:12.069Z,2.70
2018-09-24T03:45:46.944Z,2.90
2018-09-24T03:48:21.292Z,2.77
2018-09-24T03:50:55.942Z,2.33
2018-09-24T03:53:30.104Z,2.40
2018-09-24T03:56:04.038Z,2.80
2018-09-24T03:58:38.327Z,2.27
2018-09-24T04:01:12.714Z,2.80
2018-09-24T04:03:47.784Z,2.50
2018-09-24T04:06:27.526Z,2.80
2018-09-24T04:09:08.966Z,2.57
2018-09-24T04:11:48.327Z,2.30
2018-09-24T04:14:27.801Z,2.90
2018-09-24T04:17:07.888Z,2.70
2018-09-24T04:19:47.239Z,2.73
2018-09-24T04:22:27.371Z,2.80
2018-09-24T04:25:07.631Z,2.40
2018-09-24T04:27:46.928Z,2.60
2018-09-24T04:30:26.646Z,2.40
2018-09-24T04:33:06.157Z,2.43
2018-09-24T04:35:46.064Z,2.53
2018-09-24T04:38:25.729Z,2.20
2018-09-24T04:41:05.229Z,2.40
2018-09-24T04:43:44.942Z,3.00
2018-09-24T04:46:24.318Z,2.40
2018-09-24T04:49:03.661Z,2.17
2018-09-24T04:51:43.171Z,2.47
2018-09-24T04:54:22.523Z,2.57
2018-09-24T04:57:02.965Z,2.40
2018-09-24T04:59:42.842Z,2.77
2018-09-24T05:02:22.423Z,2.80
2018-09-24T05:05:02.037Z,2.67
2018-09-24T05:07:41.606Z,2.50
2018-09-24T05:10:21.585Z,2.73
2018-09-24T05:13:01.189Z,2.70
2018-09-24T05:15:40.532Z,2.77
2018-09-24T05:18:20.227Z,2.77
2018-09-24T05:20:59.781Z,3.00
2018-09-24T05:23:39.347Z,2.30
2018-09-24T05:26:19.875Z,2.43
2018-09-24T05:28:59.161Z,2.57
2018-09-24T05:31:38.529Z,3.10
2018-09-24T05:34:18.089Z,2.60
2018-09-24T05:36:57.975Z,2.80
2018-09-24T05:39:37.373Z,2.13
2018-09-24T05:42:16.808Z,2.83
2018-09-24T05:44:56.233Z,2.23
2018-09-24T05:47:35.887Z,2.70
2018-09-24T05:50:15.497Z,2.57
2018-09-24T05:52:55.523Z,3.40
2018-09-24T05:55:35.047Z,2.47
2018-09-24T05:58:14.679Z,3.00
2018-09-24T06:00:54.202Z,2.67
2018-09-24T06:03:33.648Z,2.50
2018-09-24T06:06:14.256Z,2.63
2018-09-24T06:08:53.904Z,3.00
2018-09-24T06:11:33.398Z,2.50
2018-09-24T06:14:13.337Z,2.80
2018-09-24T06:16:52.902Z,2.80
2018-09-24T06:19:32.553Z,2.37
2018-09-24T06:22:12.192Z,3.30
2018-09-24T06:24:51.617Z,2.63
2018-09-24T06:27:31.196Z,2.60
2018-09-24T06:30:10.903Z,2.67
2018-09-24T06:32:50.379Z,2.83
2018-09-24T06:35:30.047Z,2.80
2018-09-24T06:38:10.181Z,3.00
2018-09-24T06:40:50.204Z,2.70
2018-09-24T06:43:29.698Z,2.83
2018-09-24T06:46:09.788Z,2.40
2018-09-24T06:48:50.063Z,2.80
2018-09-24T06:51:29.470Z,2.47
2018-09-24T06:54:08.952Z,2.90
2018-09-24T06:56:48.353Z,2.90
2018-09-24T06:59:27.831Z,2.83
2018-09-24T07:02:07.207Z,2.80
2018-09-24T07:04:46.478Z,2.83
2018-09-24T07:07:26.667Z,2.70
2018-09-24T07:10:07.093Z,2.27
2018-09-24T07:12:46.668Z,2.67
2018-09-24T07:15:26.814Z,2.17
2018-09-24T07:18:06.147Z,2.67
2018-09-24T07:20:45.958Z,2.70
2018-09-24T07:23:25.468Z,2.50
2018-09-24T07:26:04.893Z,2.67
2018-09-24T07:28:44.432Z,2.30
2018-09-24T07:31:23.822Z,2.57
2018-09-24T07:34:03.334Z,2.47
2018-09-24T07:36:43.559Z,2.53
2018-09-24T07:39:23.075Z,2.50
2018-09-24T07:42:02.403Z,2.53
2018-09-24T07:44:42.323Z,2.50
2018-09-24T07:47:22.070Z,2.20
2018-09-24T07:50:01.638Z,3.23
2018-09-24T07:52:41.103Z,2.57
2018-09-24T07:55:21.053Z,2.30
2018-09-24T07:58:00.481Z,2.70
2018-09-24T08:00:40.092Z,2.90
2018-09-24T08:03:19.867Z,2.30
2018-09-24T08:05:59.417Z,2.97
2018-09-24T08:08:39.027Z,1.90
2018-09-24T08:11:18.737Z,2.80
2018-09-24T08:13:58.500Z,2.50
2018-09-24T08:16:38.826Z,2.60
2018-09-24T08:19:18.587Z,2.27
2018-09-24T08:21:58.860Z,2.63
2018-09-24T08:24:38.512Z,2.33
2018-09-24T08:27:17.971Z,2.70
2018-09-24T08:29:57.543Z,2.60
2018-09-24T08:32:36.931Z,2.60
2018-09-24T08:35:16.863Z,2.33
2018-09-24T08:37:56.456Z,2.40
2018-09-24T08:40:36.037Z,2.60
2018-09-24T08:43:15.514Z,2.27
2018-09-24T08:48:42.452Z,2.07
2018-09-24T08:51:22.147Z,1.97
2018-09-24T08:54:01.592Z,2.70
2018-09-24T08:56:42.185Z,2.03
2018-09-24T08:59:21.842Z,2.07
2018-09-24T09:02:01.316Z,2.67
2018-09-24T09:04:42.014Z,2.27
2018-09-24T09:07:21.771Z,2.00
2018-09-24T09:10:01.351Z,1.70
2018-09-24T09:12:41.468Z,2.07
2018-09-24T09:15:21.597Z,1.50
2018-09-24T09:18:01.546Z,1.87
2018-09-24T09:20:41.239Z,1.73
2018-09-24T09:23:21.046Z,2.00
2018-09-24T09:26:00.414Z,1.93
2018-09-24T09:28:40.321Z,2.07
2018-09-24T09:31:20.149Z,1.90
2018-09-24T09:34:00.163Z,1.60
2018-09-24T09:36:39.497Z,1.90
2018-09-24T09:39:19.075Z,1.43
2018-09-24T09:41:58.839Z,1.60
2018-09-24T09:44:39.254Z,1.60
2018-09-24T09:47:19.101Z,1.70
2018-09-24T09:49:58.931Z,1.73
2018-09-24T09:52:38.607Z,1.93
2018-09-24T09:55:18.061Z,1.60
2018-09-24T09:57:57.668Z,1.70
2018-09-24T10:00:37.952Z,1.90
2018-09-24T10:03:17.487Z,1.70
2018-09-24T10:05:56.938Z,1.40
2018-09-24T10:08:36.290Z,1.83
2018-09-24T10:11:15.759Z,1.50
2018-09-24T10:13:55.099Z,1.70
2018-09-24T10:16:34.758Z,1.70
2018-09-24T10:19:14.438Z,1.57
2018-09-24T10:21:54.342Z,1.93
2018-09-24T10:24:34.057Z,1.50
2018-09-24T10:27:13.669Z,2.10
2018-09-24T10:29:53.211Z,1.90
2018-09-24T10:32:33.443Z,1.30
2018-09-24T10:35:13.159Z,1.60
2018-09-24T10:37:52.848Z,1.50
2018-09-24T10:40:32.747Z,1.40
2018-09-24T10:43:12.628Z,1.80
2018-09-24T10:45:53.088Z,1.40
2018-09-24T10:48:33.089Z,1.60
2018-09-24T10:51:12.822Z,1.00
2018-09-24T10:53:52.584Z,1.20
2018-09-24T10:56:32.928Z,1.10
2018-09-24T10:59:12.844Z,1.30
2018-09-24T11:01:52.746Z,1.30
2018-09-24T11:04:32.754Z,1.20
2018-09-24T11:07:12.614Z,1.00
2018-09-24T11:09:52.517Z,1.00
2018-09-24T11:12:32.501Z,1.40
2018-09-24T11:15:12.311Z,1.30
2018-09-24T11:17:52.077Z,1.03
2018-09-24T11:20:31.173Z,1.23
2018-09-24T11:23:11.676Z,1.47
2018-09-24T11:25:51.288Z,1.10
2018-09-24T11:28:31.304Z,1.30
2018-09-24T11:31:10.825Z,1.33
2018-09-24T11:33:50.158Z,1.20
2018-09-24T11:36:29.985Z,1.30
2018-09-24T11:39:12.958Z,1.60
2018-09-24T11:41:52.419Z,1.33
2018-09-24T11:44:31.935Z,1.10
2018-09-24T11:47:11.830Z,1.20
2018-09-24T11:49:51.399Z,1.20
2018-09-24T11:52:30.910Z,1.30
2018-09-24T11:55:11.072Z,1.10
2018-09-24T11:57:50.715Z,1.33
2018-09-24T12:00:30.287Z,1.10
2018-09-24T12:03:09.548Z,1.20
2018-09-24T12:05:48.916Z,1.03
2018-09-24T12:08:28.418Z,1.20
2018-09-24T12:11:08.207Z,0.90
2018-09-24T12:13:47.651Z,0.80
2018-09-24T12:16:27.886Z,1.20
2018-09-24T12:19:07.522Z,0.90
2018-09-24T12:21:47.320Z,1.00
2018-09-24T12:24:27.276Z,0.90
2018-09-24T12:27:06.886Z,1.00
2018-09-24T12:29:46.632Z,1.00
2018-09-24T12:32:26.653Z,0.90
2018-09-24T12:35:06.445Z,1.20
2018-09-24T12:37:46.103Z,1.13
2018-09-24T12:40:26.128Z,0.77
2018-09-24T12:43:06.097Z,1.10
2018-09-24T12:45:45.995Z,1.50
2018-09-24T12:48:26.082Z,1.07
2018-09-24T12:51:05.566Z,1.10
2018-09-24T12:53:45.748Z,1.17
2018-09-24T12:56:25.837Z,1.13
2018-09-24T12:59:05.641Z,1.03
2018-09-24T13:01:45.275Z,1.23
2018-09-24T13:04:24.824Z,1.00
2018-09-24T13:07:04.523Z,1.20
2018-09-24T13:09:44.144Z,1.10
2018-09-24T13:12:23.973Z,1.30
2018-09-24T13:15:03.284Z,1.43
2018-09-24T13:17:43.716Z,1.20
2018-09-24T13:20:23.461Z,1.23
2018-09-24T13:23:03.328Z,1.13
2018-09-24T13:25:43.333Z,1.17
2018-09-24T13:28:23.226Z,1.30
2018-09-24T13:31:03.002Z,0.93
2018-09-24T13:33:43.201Z,1.00
2018-09-24T13:36:22.787Z,1.50
2018-09-24T13:39:02.153Z,1.10
2018-09-24T13:41:41.781Z,1.30
2018-09-24T13:44:21.166Z,1.00
2018-09-24T13:47:00.832Z,1.00
2018-09-24T13:49:40.826Z,1.10
2018-09-24T13:52:20.498Z,1.27
2018-09-24T13:55:00.719Z,1.40
2018-09-24T13:57:40.346Z,1.40
2018-09-24T14:00:20.042Z,1.70
2018-09-24T14:03:00.135Z,1.20
2018-09-24T14:05:39.704Z,1.23
2018-09-24T14:08:19.532Z,1.33
2018-09-24T14:10:59.440Z,1.20
2018-09-24T14:13:39.010Z,1.40
2018-09-24T14:16:18.296Z,1.10
2018-09-24T14:18:58.203Z,1.27
2018-09-24T14:21:38.294Z,1.13
2018-09-24T14:24:18.202Z,1.30
2018-09-24T14:26:58.028Z,1.40
2018-09-24T14:29:38.624Z,1.30
2018-09-24T14:32:18.088Z,1.50
2018-09-24T14:34:58.693Z,1.60
2018-09-24T14:37:38.358Z,1.85
2018-09-24T14:40:17.896Z,2.00
2018-09-24T14:42:57.132Z,1.42
2018-09-24T14:45:36.912Z,1.37
2018-09-24T14:48:16.463Z,1.60
2018-09-24T14:50:56.407Z,1.43
2018-09-24T14:53:36.781Z,1.77
2018-09-24T14:56:16.882Z,1.47
2018-09-24T14:58:56.562Z,1.30
2018-09-24T15:01:36.562Z,1.27
2018-09-24T15:04:16.083Z,1.40
2018-09-24T15:06:55.697Z,1.37
2018-09-24T15:09:35.492Z,1.20
2018-09-24T15:12:15.049Z,1.00
2018-09-24T15:14:55.411Z,1.20
2018-09-24T15:17:34.899Z,1.00
2018-09-24T15:20:14.403Z,1.00
2018-09-24T15:22:54.318Z,1.10
2018-09-24T15:25:34.245Z,1.10
2018-09-24T15:28:14.068Z,1.00
2018-09-24T15:30:54.072Z,1.60
2018-09-24T15:33:34.292Z,1.00
2018-09-24T15:36:13.941Z,1.10
2018-09-24T15:38:53.632Z,1.20
2018-09-24T15:41:33.421Z,1.13
2018-09-24T15:44:13.056Z,1.30
2018-09-24T15:46:53.027Z,1.50
2018-09-24T15:49:37.828Z,1.30
2018-09-24T15:52:17.724Z,1.50
2018-09-24T15:54:57.765Z,1.40
2018-09-24T15:57:37.634Z,1.30
2018-09-24T16:00:17.160Z,1.60
2018-09-24T16:02:57.327Z,1.70
2018-09-24T16:05:36.957Z,1.77
2018-09-24T16:08:16.298Z,1.60
2018-09-24T16:10:56.373Z,1.37
2018-09-24T16:13:36.602Z,1.00
2018-09-24T16:16:16.446Z,1.10
2018-09-24T16:18:56.227Z,1.37
2018-09-24T16:21:36.676Z,1.60
2018-09-24T16:24:16.084Z,1.57
2018-09-24T16:26:55.972Z,1.37
2018-09-24T16:29:35.948Z,1.50
2018-09-24T16:32:15.955Z,1.40
2018-09-24T16:34:55.794Z,1.30
2018-09-24T16:37:35.798Z,1.43
2018-09-24T16:40:15.707Z,1.33
2018-09-24T16:42:55.989Z,1.43
2018-09-24T16:45:36.017Z,1.23
2018-09-24T16:48:15.602Z,1.43
2018-09-24T16:50:55.638Z,1.40
2018-09-24T16:53:35.642Z,1.80
2018-09-24T16:56:15.428Z,1.57
2018-09-24T16:58:55.756Z,2.40
2018-09-24T17:01:35.403Z,0.93
2018-09-24T17:04:16.446Z,0.77
2018-09-24T17:06:56.452Z,0.80
2018-09-24T17:09:36.157Z,0.87
2018-09-24T17:12:15.760Z,0.80
2018-09-24T17:14:57.156Z,1.67
2018-09-24T17:17:36.671Z,1.50
2018-09-24T17:20:17.082Z,1.20
2018-09-24T17:22:57.204Z,1.70
2018-09-24T17:25:36.887Z,1.40
2018-09-24T17:28:16.946Z,1.33
2018-09-24T17:30:57.088Z,1.77
2018-09-24T17:33:36.952Z,1.60
2018-09-24T17:36:16.788Z,1.93
2018-09-24T17:38:56.294Z,2.17
2018-09-24T17:41:35.844Z,1.90
2018-09-24T17:44:15.661Z,2.33
2018-09-24T17:46:55.434Z,2.63
2018-09-24T17:49:35.631Z,1.60
2018-09-24T17:52:15.497Z,1.50
2018-09-24T17:54:56.217Z,1.50
2018-09-24T17:57:36.387Z,1.80
2018-09-24T18:00:17.377Z,1.77
2018-09-24T18:02:57.137Z,1.93
2018-09-24T18:05:36.890Z,1.93
2018-09-24T18:08:17.233Z,1.70
2018-09-24T18:10:57.112Z,2.00
2018-09-24T18:13:37.092Z,2.10
2018-09-24T18:16:16.857Z,2.40
2018-09-24T18:18:56.819Z,2.10
2018-09-24T18:21:36.981Z,2.50
2018-09-24T18:24:16.958Z,2.57
2018-09-24T18:26:56.812Z,4.40
2018-09-24T18:29:36.868Z,3.63
2018-09-24T18:32:17.339Z,3.23
2018-09-24T18:34:57.174Z,4.30
2018-09-24T18:37:36.755Z,2.57
2018-09-24T18:40:16.395Z,2.70
2018-09-24T18:42:56.314Z,3.00
2018-09-24T18:45:36.573Z,2.43
2018-09-24T18:48:16.334Z,3.53
2018-09-24T18:50:56.283Z,3.27
2018-09-24T18:53:36.193Z,2.67
2018-09-24T18:56:16.514Z,2.70
2018-09-24T18:58:57.231Z,2.53
2018-09-24T19:01:37.649Z,2.30
2018-09-24T19:04:17.379Z,2.03
2018-09-24T19:06:57.056Z,2.40
2018-09-24T19:09:36.815Z,11.47
2018-09-24T19:12:16.514Z,10.53
2018-09-24T19:14:56.157Z,8.93
2018-09-24T19:17:35.844Z,9.07
2018-09-24T19:20:15.476Z,6.10
2018-09-24T19:22:55.318Z,5.40
2018-09-24T19:25:35.836Z,6.40
2018-09-24T19:28:15.487Z,4.53
2018-09-24T19:30:55.239Z,4.30
2018-09-24T19:33:35.855Z,3.93
2018-09-24T19:36:15.659Z,3.30
2018-09-24T19:38:55.391Z,3.30
2018-09-24T19:41:35.683Z,3.03
2018-09-24T19:44:15.399Z,2.60
2018-09-24T19:47:02.848Z,3.07
2018-09-24T19:49:43.297Z,2.97
2018-09-24T19:52:23.126Z,2.57
2018-09-24T19:55:02.964Z,2.73
2018-09-24T19:57:42.745Z,3.03
2018-09-24T20:00:22.727Z,2.70
2018-09-24T20:03:02.812Z,2.70
2018-09-24T20:05:42.908Z,3.30
2018-09-24T20:08:22.533Z,2.67
2018-09-24T20:11:02.528Z,3.37
2018-09-24T20:13:42.376Z,3.50
2018-09-24T20:16:23.962Z,7.47
2018-09-24T20:19:04.516Z,3.77
2018-09-24T20:21:44.232Z,2.90
2018-09-24T20:24:24.693Z,3.93
2018-09-24T20:27:05.118Z,4.00
2018-09-24T20:29:45.402Z,3.53
2018-09-24T20:32:25.399Z,3.43
2018-09-24T20:35:05.466Z,3.70
2018-09-24T20:37:45.043Z,3.17
2018-09-24T20:40:24.933Z,3.00
2018-09-24T20:43:05.127Z,4.13
2018-09-24T20:45:44.870Z,4.37
2018-09-24T20:48:24.517Z,3.80
2018-09-24T20:51:04.112Z,4.00
2018-09-24T20:53:43.864Z,4.20
2018-09-24T20:56:23.575Z,3.87
2018-09-24T20:59:03.623Z,4.50
2018-09-24T21:01:43.291Z,3.60
2018-09-24T21:04:23.453Z,3.67
2018-09-24T21:07:03.682Z,3.90
2018-09-24T21:09:43.531Z,3.80
2018-09-24T21:12:23.382Z,5.70
2018-09-24T21:15:03.278Z,4.30
2018-09-24T21:17:43.211Z,4.00
2018-09-24T21:20:22.847Z,3.50
2018-09-24T21:23:03.405Z,3.10
2018-09-24T21:25:43.272Z,2.90
2018-09-24T21:28:23.140Z,2.90
2018-09-24T21:31:04.271Z,3.20
2018-09-24T21:33:44.146Z,3.33
2018-09-24T21:36:24.034Z,3.23
2018-09-24T21:39:03.570Z,2.83
2018-09-24T21:41:43.933Z,2.90
2018-09-24T21:44:23.737Z,2.67
2018-09-24T21:47:03.666Z,3.10
2018-09-24T21:49:43.941Z,2.50
2018-09-24T21:52:23.782Z,3.03
2018-09-24T21:55:03.677Z,3.10
2018-09-24T21:57:43.522Z,3.20
2018-09-24T22:00:23.488Z,3.23
2018-09-24T22:03:03.430Z,2.77
2018-09-24T22:05:50.181Z,3.13
2018-09-24T22:08:29.791Z,3.43
2018-09-24T22:11:10.522Z,2.87
2018-09-24T22:13:50.122Z,3.60
2018-09-24T22:16:29.946Z,3.00
2018-09-24T22:19:10.081Z,3.30
2018-09-24T22:21:49.986Z,3.50
2018-09-24T22:24:29.493Z,4.10
2018-09-24T22:27:09.079Z,3.93
2018-09-24T22:29:48.771Z,3.60
2018-09-24T22:32:28.435Z,3.27
2018-09-24T22:35:07.971Z,3.80
2018-09-24T22:37:47.901Z,3.03
2018-09-24T22:40:27.324Z,3.90
2018-09-24T22:43:06.972Z,3.57
2018-09-24T22:45:46.451Z,3.50
2018-09-24T22:48:25.783Z,3.63
2018-09-24T22:51:05.971Z,3.33
2018-09-24T22:53:45.734Z,3.13
2018-09-24T22:56:25.420Z,3.10
2018-09-24T22:59:05.255Z,3.27
2018-09-24T23:01:44.987Z,3.20
2018-09-24T23:04:25.121Z,3.30
2018-09-24T23:07:06.013Z,3.00
2018-09-24T23:09:46.332Z,3.43
2018-09-24T23:12:26.320Z,3.37
2018-09-24T23:15:05.928Z,3.17
2018-09-24T23:17:46.052Z,3.07
2018-09-24T23:20:25.826Z,3.00
2018-09-24T23:23:05.783Z,3.10
2018-09-24T23:25:45.730Z,3.37
2018-09-24T23:28:25.311Z,3.50
2018-09-24T23:31:05.873Z,3.17
2018-09-24T23:33:45.575Z,3.40
2018-09-24T23:36:25.303Z,3.40
2018-09-24T23:39:05.573Z,3.40
2018-09-24T23:41:45.304Z,3.00
2018-09-24T23:44:25.722Z,3.80
2018-09-24T23:47:05.616Z,3.70
2018-09-24T23:49:45.365Z,3.87
2018-09-24T23:52:25.265Z,3.50
2018-09-24T23:55:06.173Z,3.97
2018-09-24T23:57:46.020Z,3.50
